Terminal Aerodrome Forecast
Issued by NWS

Home | Current Version | Previous Version | Text Only | Print | Product List | Glossary On
Versions: 1 2 3 4 5 6 7 8 9 10 11 12 13 14 15 16
000
FTUS41 KGYX 010524
TAFHIE
TAF
KHIE 010524Z 0106/0206 00000KT P6SM SCT200
     FM011500 19005KT P6SM SCT060 OVC100
     FM011800 18005KT P6SM SCT030 OVC050
     FM020000 VRB03KT 4SM -SN BKN025 OVC040
     FM020300 00000KT 2SM -SN BR BKN015 OVC025=

USA.gov is the U.S. government's official web portal to all federal, state and local government web resources and services.